sensor_id;sensor_type;location;lat;lon;timestamp;temperature;humidity
82243;DHT22;71844;51.528;4.442;2023-11-21T00:00:08;7.00;88.80
82243;DHT22;71844;51.528;4.442;2023-11-21T00:02:39;7.00;89.00
82243;DHT22;71844;51.528;4.442;2023-11-21T00:05:10;7.10;89.30
82243;DHT22;71844;51.528;4.442;2023-11-21T00:07:37;7.10;89.60
82243;DHT22;71844;51.528;4.442;2023-11-21T00:10:05;7.10;89.80
82243;DHT22;71844;51.528;4.442;2023-11-21T00:12:32;7.20;89.70
82243;DHT22;71844;51.528;4.442;2023-11-21T00:15:00;7.30;89.70
82243;DHT22;71844;51.528;4.442;2023-11-21T00:17:28;7.30;89.70
82243;DHT22;71844;51.528;4.442;2023-11-21T00:19:55;7.30;89.60
82243;DHT22;71844;51.528;4.442;2023-11-21T00:22:22;7.40;89.70
82243;DHT22;71844;51.528;4.442;2023-11-21T00:24:49;7.40;89.80
82243;DHT22;71844;51.528;4.442;2023-11-21T00:27:15;7.50;89.90
82243;DHT22;71844;51.528;4.442;2023-11-21T00:29:42;7.50;89.90
82243;DHT22;71844;51.528;4.442;2023-11-21T00:32:09;7.50;90.00
82243;DHT22;71844;51.528;4.442;2023-11-21T00:34:36;7.60;90.10
82243;DHT22;71844;51.528;4.442;2023-11-21T00:37:03;7.60;90.00
82243;DHT22;71844;51.528;4.442;2023-11-21T00:39:33;7.60;90.10
82243;DHT22;71844;51.528;4.442;2023-11-21T00:42:01;7.60;90.10
82243;DHT22;71844;51.528;4.442;2023-11-21T00:44:28;7.70;90.10
82243;DHT22;71844;51.528;4.442;2023-11-21T00:46:55;7.70;90.00
82243;DHT22;71844;51.528;4.442;2023-11-21T00:49:22;7.80;90.00
82243;DHT22;71844;51.528;4.442;2023-11-21T00:51:49;7.80;90.00
82243;DHT22;71844;51.528;4.442;2023-11-21T00:54:16;7.80;90.00
82243;DHT22;71844;51.528;4.442;2023-11-21T00:56:43;7.80;90.00
82243;DHT22;71844;51.528;4.442;2023-11-21T00:59:10;7.80;89.90
82243;DHT22;71844;51.528;4.442;2023-11-21T01:01:40;7.80;89.90
82243;DHT22;71844;51.528;4.442;2023-11-21T01:04:07;7.90;90.00
82243;DHT22;71844;51.528;4.442;2023-11-21T01:06:36;7.90;90.10
82243;DHT22;71844;51.528;4.442;2023-11-21T01:09:07;7.90;90.10
82243;DHT22;71844;51.528;4.442;2023-11-21T01:14:25;7.90;90.10
82243;DHT22;71844;51.528;4.442;2023-11-21T01:16:53;7.90;90.10
82243;DHT22;71844;51.528;4.442;2023-11-21T01:19:20;8.00;90.20
82243;DHT22;71844;51.528;4.442;2023-11-21T01:21:47;8.00;90.20
82243;DHT22;71844;51.528;4.442;2023-11-21T01:24:14;8.00;90.20
82243;DHT22;71844;51.528;4.442;2023-11-21T01:26:41;8.00;90.20
82243;DHT22;71844;51.528;4.442;2023-11-21T01:29:08;8.10;90.20
82243;DHT22;71844;51.528;4.442;2023-11-21T01:31:34;8.10;90.10
82243;DHT22;71844;51.528;4.442;2023-11-21T01:34:01;8.10;90.20
82243;DHT22;71844;51.528;4.442;2023-11-21T01:36:32;8.20;90.10
82243;DHT22;71844;51.528;4.442;2023-11-21T01:38:59;8.20;90.20
82243;DHT22;71844;51.528;4.442;2023-11-21T01:41:27;8.20;90.20
82243;DHT22;71844;51.528;4.442;2023-11-21T01:43:55;8.20;90.30
82243;DHT22;71844;51.528;4.442;2023-11-21T01:46:23;8.20;90.40
82243;DHT22;71844;51.528;4.442;2023-11-21T01:48:51;8.20;90.50
82243;DHT22;71844;51.528;4.442;2023-11-21T01:51:20;8.20;90.50
82243;DHT22;71844;51.528;4.442;2023-11-21T01:53:47;8.30;90.50
82243;DHT22;71844;51.528;4.442;2023-11-21T01:56:14;8.30;90.50
82243;DHT22;71844;51.528;4.442;2023-11-21T01:58:42;8.30;90.50
82243;DHT22;71844;51.528;4.442;2023-11-21T02:01:10;8.30;90.50
82243;DHT22;71844;51.528;4.442;2023-11-21T02:03:36;8.30;90.50
82243;DHT22;71844;51.528;4.442;2023-11-21T02:06:04;8.40;90.40
82243;DHT22;71844;51.528;4.442;2023-11-21T02:08:32;8.30;90.40
82243;DHT22;71844;51.528;4.442;2023-11-21T02:10:58;8.40;90.40
82243;DHT22;71844;51.528;4.442;2023-11-21T02:13:25;8.40;90.40
82243;DHT22;71844;51.528;4.442;2023-11-21T02:15:52;8.40;90.40
82243;DHT22;71844;51.528;4.442;2023-11-21T02:18:21;8.40;90.40
82243;DHT22;71844;51.528;4.442;2023-11-21T02:20:48;8.40;90.40
82243;DHT22;71844;51.528;4.442;2023-11-21T02:23:15;8.40;90.40
82243;DHT22;71844;51.528;4.442;2023-11-21T02:25:42;8.40;90.30
82243;DHT22;71844;51.528;4.442;2023-11-21T02:28:10;8.50;90.40
82243;DHT22;71844;51.528;4.442;2023-11-21T02:30:39;8.40;90.50
82243;DHT22;71844;51.528;4.442;2023-11-21T02:33:06;8.50;90.60
82243;DHT22;71844;51.528;4.442;2023-11-21T02:35:33;8.50;90.50
82243;DHT22;71844;51.528;4.442;2023-11-21T02:38:01;8.50;90.40
82243;DHT22;71844;51.528;4.442;2023-11-21T02:40:29;8.50;90.40
82243;DHT22;71844;51.528;4.442;2023-11-21T02:42:56;8.50;90.40
82243;DHT22;71844;51.528;4.442;2023-11-21T02:45:26;8.50;90.40
82243;DHT22;71844;51.528;4.442;2023-11-21T02:47:53;8.50;90.50
82243;DHT22;71844;51.528;4.442;2023-11-21T02:50:21;8.50;90.40
82243;DHT22;71844;51.528;4.442;2023-11-21T02:52:50;8.50;90.40
82243;DHT22;71844;51.528;4.442;2023-11-21T02:55:17;8.50;90.40
82243;DHT22;71844;51.528;4.442;2023-11-21T02:57:43;8.50;90.40
82243;DHT22;71844;51.528;4.442;2023-11-21T03:00:11;8.60;90.40
82243;DHT22;71844;51.528;4.442;2023-11-21T03:02:40;8.60;90.50
82243;DHT22;71844;51.528;4.442;2023-11-21T03:05:08;8.60;90.50
82243;DHT22;71844;51.528;4.442;2023-11-21T03:07:38;8.60;90.50
82243;DHT22;71844;51.528;4.442;2023-11-21T03:10:07;8.60;90.50
82243;DHT22;71844;51.528;4.442;2023-11-21T03:12:39;8.60;90.50
82243;DHT22;71844;51.528;4.442;2023-11-21T03:15:07;8.50;90.50
82243;DHT22;71844;51.528;4.442;2023-11-21T03:17:34;8.60;90.50
82243;DHT22;71844;51.528;4.442;2023-11-21T03:20:04;8.60;90.50
82243;DHT22;71844;51.528;4.442;2023-11-21T03:22:31;8.60;90.50
82243;DHT22;71844;51.528;4.442;2023-11-21T03:25:01;8.60;90.50
82243;DHT22;71844;51.528;4.442;2023-11-21T03:27:36;8.60;90.50
82243;DHT22;71844;51.528;4.442;2023-11-21T03:30:03;8.60;90.50
82243;DHT22;71844;51.528;4.442;2023-11-21T03:32:34;8.60;90.60
82243;DHT22;71844;51.528;4.442;2023-11-21T03:35:00;8.60;90.60
82243;DHT22;71844;51.528;4.442;2023-11-21T03:37:33;8.60;90.60
82243;DHT22;71844;51.528;4.442;2023-11-21T03:40:01;8.60;90.50
82243;DHT22;71844;51.528;4.442;2023-11-21T03:42:30;8.60;90.50
82243;DHT22;71844;51.528;4.442;2023-11-21T03:44:57;8.60;90.40
82243;DHT22;71844;51.528;4.442;2023-11-21T03:47:25;8.50;90.30
82243;DHT22;71844;51.528;4.442;2023-11-21T03:49:52;8.50;90.20
82243;DHT22;71844;51.528;4.442;2023-11-21T03:52:21;8.50;90.20
82243;DHT22;71844;51.528;4.442;2023-11-21T03:54:48;8.50;90.20
82243;DHT22;71844;51.528;4.442;2023-11-21T03:57:15;8.40;90.30
82243;DHT22;71844;51.528;4.442;2023-11-21T03:59:43;8.40;90.40
82243;DHT22;71844;51.528;4.442;2023-11-21T04:02:10;8.40;90.40
82243;DHT22;71844;51.528;4.442;2023-11-21T04:04:39;8.40;90.40
82243;DHT22;71844;51.528;4.442;2023-11-21T04:07:07;8.40;90.50
82243;DHT22;71844;51.528;4.442;2023-11-21T04:09:34;8.40;90.60
82243;DHT22;71844;51.528;4.442;2023-11-21T04:12:03;8.40;90.60
82243;DHT22;71844;51.528;4.442;2023-11-21T04:14:30;8.40;90.60
82243;DHT22;71844;51.528;4.442;2023-11-21T04:16:59;8.40;90.60
82243;DHT22;71844;51.528;4.442;2023-11-21T04:19:26;8.40;90.60
82243;DHT22;71844;51.528;4.442;2023-11-21T04:21:57;8.40;90.70
82243;DHT22;71844;51.528;4.442;2023-11-21T04:24:24;8.40;90.70
82243;DHT22;71844;51.528;4.442;2023-11-21T04:29:36;8.40;90.80
82243;DHT22;71844;51.528;4.442;2023-11-21T04:32:03;8.40;90.80
82243;DHT22;71844;51.528;4.442;2023-11-21T04:34:30;8.40;90.80
82243;DHT22;71844;51.528;4.442;2023-11-21T04:37:01;8.40;90.90
82243;DHT22;71844;51.528;4.442;2023-11-21T04:39:28;8.40;90.90
82243;DHT22;71844;51.528;4.442;2023-11-21T04:41:54;8.40;90.90
82243;DHT22;71844;51.528;4.442;2023-11-21T04:44:21;8.50;90.90
82243;DHT22;71844;51.528;4.442;2023-11-21T04:46:48;8.50;91.00
82243;DHT22;71844;51.528;4.442;2023-11-21T04:49:15;8.50;91.10
82243;DHT22;71844;51.528;4.442;2023-11-21T04:51:42;8.50;91.10
82243;DHT22;71844;51.528;4.442;2023-11-21T04:54:08;8.50;91.10
82243;DHT22;71844;51.528;4.442;2023-11-21T04:56:35;8.50;91.10
82243;DHT22;71844;51.528;4.442;2023-11-21T04:59:02;8.60;91.10
82243;DHT22;71844;51.528;4.442;2023-11-21T05:01:29;8.60;91.10
82243;DHT22;71844;51.528;4.442;2023-11-21T05:03:56;8.60;91.10
82243;DHT22;71844;51.528;4.442;2023-11-21T05:06:23;8.60;91.00
82243;DHT22;71844;51.528;4.442;2023-11-21T05:08:50;8.60;91.00
82243;DHT22;71844;51.528;4.442;2023-11-21T05:11:27;8.60;91.10
82243;DHT22;71844;51.528;4.442;2023-11-21T05:13:54;8.60;91.00
82243;DHT22;71844;51.528;4.442;2023-11-21T05:16:24;8.60;91.20
82243;DHT22;71844;51.528;4.442;2023-11-21T05:18:51;8.60;91.20
82243;DHT22;71844;51.528;4.442;2023-11-21T05:21:18;8.60;91.10
82243;DHT22;71844;51.528;4.442;2023-11-21T05:23:47;8.60;91.20
82243;DHT22;71844;51.528;4.442;2023-11-21T05:26:14;8.60;91.30
82243;DHT22;71844;51.528;4.442;2023-11-21T05:28:41;8.70;91.30
82243;DHT22;71844;51.528;4.442;2023-11-21T05:31:11;8.70;91.30
82243;DHT22;71844;51.528;4.442;2023-11-21T05:33:47;8.70;91.30
82243;DHT22;71844;51.528;4.442;2023-11-21T05:36:14;8.70;91.30
82243;DHT22;71844;51.528;4.442;2023-11-21T05:38:40;8.70;91.40
82243;DHT22;71844;51.528;4.442;2023-11-21T05:41:08;8.70;91.50
82243;DHT22;71844;51.528;4.442;2023-11-21T05:43:37;8.80;91.40
82243;DHT22;71844;51.528;4.442;2023-11-21T05:46:04;8.80;91.50
82243;DHT22;71844;51.528;4.442;2023-11-21T05:48:33;8.80;91.40
82243;DHT22;71844;51.528;4.442;2023-11-21T05:51:00;8.80;91.40
82243;DHT22;71844;51.528;4.442;2023-11-21T05:53:29;8.80;91.50
82243;DHT22;71844;51.528;4.442;2023-11-21T05:55:56;8.80;91.50
82243;DHT22;71844;51.528;4.442;2023-11-21T05:58:24;8.80;91.50
82243;DHT22;71844;51.528;4.442;2023-11-21T06:00:54;8.80;91.50
82243;DHT22;71844;51.528;4.442;2023-11-21T06:03:21;8.80;91.50
82243;DHT22;71844;51.528;4.442;2023-11-21T06:06:00;8.90;91.50
82243;DHT22;71844;51.528;4.442;2023-11-21T06:08:30;8.90;91.50
82243;DHT22;71844;51.528;4.442;2023-11-21T06:11:04;8.90;91.60
82243;DHT22;71844;51.528;4.442;2023-11-21T06:13:31;8.90;91.60
82243;DHT22;71844;51.528;4.442;2023-11-21T06:16:00;8.90;91.60
82243;DHT22;71844;51.528;4.442;2023-11-21T06:18:32;9.00;91.60
82243;DHT22;71844;51.528;4.442;2023-11-21T06:20:59;9.00;91.60
82243;DHT22;71844;51.528;4.442;2023-11-21T06:23:27;9.00;91.60
82243;DHT22;71844;51.528;4.442;2023-11-21T06:25:54;9.00;91.60
82243;DHT22;71844;51.528;4.442;2023-11-21T06:28:21;9.10;91.60
82243;DHT22;71844;51.528;4.442;2023-11-21T06:30:48;9.10;91.60
82243;DHT22;71844;51.528;4.442;2023-11-21T06:33:19;9.10;91.70
82243;DHT22;71844;51.528;4.442;2023-11-21T06:35:51;9.10;91.80
82243;DHT22;71844;51.528;4.442;2023-11-21T06:38:21;9.10;91.80
82243;DHT22;71844;51.528;4.442;2023-11-21T06:40:49;9.20;91.90
82243;DHT22;71844;51.528;4.442;2023-11-21T06:43:18;9.20;91.90
82243;DHT22;71844;51.528;4.442;2023-11-21T06:45:45;9.20;91.90
82243;DHT22;71844;51.528;4.442;2023-11-21T06:48:26;9.20;91.90
82243;DHT22;71844;51.528;4.442;2023-11-21T06:50:56;9.20;92.00
82243;DHT22;71844;51.528;4.442;2023-11-21T06:53:29;9.20;92.10
82243;DHT22;71844;51.528;4.442;2023-11-21T06:55:56;9.20;92.00
82243;DHT22;71844;51.528;4.442;2023-11-21T06:58:23;9.30;92.10
82243;DHT22;71844;51.528;4.442;2023-11-21T07:00:50;9.30;92.00
82243;DHT22;71844;51.528;4.442;2023-11-21T07:03:34;9.30;92.00
82243;DHT22;71844;51.528;4.442;2023-11-21T07:06:24;9.30;92.00
82243;DHT22;71844;51.528;4.442;2023-11-21T07:08:57;9.30;92.00
82243;DHT22;71844;51.528;4.442;2023-11-21T07:11:29;9.30;92.00
82243;DHT22;71844;51.528;4.442;2023-11-21T07:14:01;9.30;92.00
82243;DHT22;71844;51.528;4.442;2023-11-21T07:16:37;9.30;92.00
82243;DHT22;71844;51.528;4.442;2023-11-21T07:19:09;9.30;92.10
82243;DHT22;71844;51.528;4.442;2023-11-21T07:21:36;9.30;92.00
82243;DHT22;71844;51.528;4.442;2023-11-21T07:24:03;9.30;92.10
82243;DHT22;71844;51.528;4.442;2023-11-21T07:26:30;9.30;92.00
82243;DHT22;71844;51.528;4.442;2023-11-21T07:28:57;9.30;92.10
82243;DHT22;71844;51.528;4.442;2023-11-21T07:31:24;9.30;92.20
82243;DHT22;71844;51.528;4.442;2023-11-21T07:33:52;9.30;92.30
82243;DHT22;71844;51.528;4.442;2023-11-21T07:36:19;9.30;92.50
82243;DHT22;71844;51.528;4.442;2023-11-21T07:38:47;9.30;92.50
82243;DHT22;71844;51.528;4.442;2023-11-21T07:41:15;9.40;92.70
82243;DHT22;71844;51.528;4.442;2023-11-21T07:43:57;9.30;92.50
82243;DHT22;71844;51.528;4.442;2023-11-21T07:46:26;9.30;92.60
82243;DHT22;71844;51.528;4.442;2023-11-21T07:48:53;9.40;92.60
82243;DHT22;71844;51.528;4.442;2023-11-21T07:51:22;9.40;92.60
82243;DHT22;71844;51.528;4.442;2023-11-21T07:53:49;9.40;92.50
82243;DHT22;71844;51.528;4.442;2023-11-21T07:56:16;9.40;92.60
82243;DHT22;71844;51.528;4.442;2023-11-21T07:58:44;9.40;92.70
82243;DHT22;71844;51.528;4.442;2023-11-21T08:01:12;9.40;92.80
82243;DHT22;71844;51.528;4.442;2023-11-21T08:03:39;9.40;92.90
82243;DHT22;71844;51.528;4.442;2023-11-21T08:06:06;9.40;92.90
82243;DHT22;71844;51.528;4.442;2023-11-21T08:08:33;9.40;92.90
82243;DHT22;71844;51.528;4.442;2023-11-21T08:11:00;9.40;93.10
82243;DHT22;71844;51.528;4.442;2023-11-21T08:13:29;9.50;93.10
82243;DHT22;71844;51.528;4.442;2023-11-21T08:15:58;9.50;93.20
82243;DHT22;71844;51.528;4.442;2023-11-21T08:18:31;9.50;93.20
82243;DHT22;71844;51.528;4.442;2023-11-21T08:20:58;9.50;93.20
82243;DHT22;71844;51.528;4.442;2023-11-21T08:23:25;9.50;93.30
82243;DHT22;71844;51.528;4.442;2023-11-21T08:25:53;9.50;93.30
82243;DHT22;71844;51.528;4.442;2023-11-21T08:28:21;9.50;93.30
82243;DHT22;71844;51.528;4.442;2023-11-21T08:30:53;9.60;93.40
82243;DHT22;71844;51.528;4.442;2023-11-21T08:33:23;9.60;93.40
82243;DHT22;71844;51.528;4.442;2023-11-21T08:35:50;9.60;93.40
82243;DHT22;71844;51.528;4.442;2023-11-21T08:38:17;9.70;93.30
82243;DHT22;71844;51.528;4.442;2023-11-21T08:40:44;9.70;93.40
82243;DHT22;71844;51.528;4.442;2023-11-21T08:43:11;9.70;93.40
82243;DHT22;71844;51.528;4.442;2023-11-21T08:45:38;9.80;93.40
82243;DHT22;71844;51.528;4.442;2023-11-21T08:48:05;9.80;93.50
82243;DHT22;71844;51.528;4.442;2023-11-21T08:50:32;9.80;93.40
82243;DHT22;71844;51.528;4.442;2023-11-21T08:52:59;9.90;93.30
82243;DHT22;71844;51.528;4.442;2023-11-21T08:55:26;9.90;93.50
82243;DHT22;71844;51.528;4.442;2023-11-21T08:57:57;10.00;93.70
82243;DHT22;71844;51.528;4.442;2023-11-21T09:00:27;10.00;93.70
82243;DHT22;71844;51.528;4.442;2023-11-21T09:02:54;10.10;93.60
82243;DHT22;71844;51.528;4.442;2023-11-21T09:05:21;10.10;93.50
82243;DHT22;71844;51.528;4.442;2023-11-21T09:07:48;10.10;93.40
82243;DHT22;71844;51.528;4.442;2023-11-21T09:10:15;10.10;93.40
82243;DHT22;71844;51.528;4.442;2023-11-21T09:12:42;10.10;93.30
82243;DHT22;71844;51.528;4.442;2023-11-21T09:15:09;10.20;93.30
82243;DHT22;71844;51.528;4.442;2023-11-21T09:17:37;10.20;93.30
82243;DHT22;71844;51.528;4.442;2023-11-21T09:20:05;10.20;93.30
82243;DHT22;71844;51.528;4.442;2023-11-21T09:22:33;10.20;93.30
82243;DHT22;71844;51.528;4.442;2023-11-21T09:25:00;10.30;93.30
82243;DHT22;71844;51.528;4.442;2023-11-21T09:27:27;10.30;93.30
82243;DHT22;71844;51.528;4.442;2023-11-21T09:29:53;10.30;93.40
82243;DHT22;71844;51.528;4.442;2023-11-21T09:32:20;10.30;93.30
82243;DHT22;71844;51.528;4.442;2023-11-21T09:34:49;10.40;93.40
82243;DHT22;71844;51.528;4.442;2023-11-21T09:37:17;10.40;93.40
82243;DHT22;71844;51.528;4.442;2023-11-21T09:39:44;10.50;93.50
82243;DHT22;71844;51.528;4.442;2023-11-21T09:42:15;10.50;93.40
82243;DHT22;71844;51.528;4.442;2023-11-21T09:45:05;10.60;93.30
82243;DHT22;71844;51.528;4.442;2023-11-21T09:47:35;10.60;93.20
82243;DHT22;71844;51.528;4.442;2023-11-21T09:50:06;10.70;93.40
82243;DHT22;71844;51.528;4.442;2023-11-21T09:55:21;11.10;94.10
82243;DHT22;71844;51.528;4.442;2023-11-21T09:57:49;11.30;93.40
82243;DHT22;71844;51.528;4.442;2023-11-21T10:00:17;11.40;93.00
82243;DHT22;71844;51.528;4.442;2023-11-21T10:02:47;11.50;92.40
82243;DHT22;71844;51.528;4.442;2023-11-21T10:05:16;11.60;92.60
82243;DHT22;71844;51.528;4.442;2023-11-21T10:07:44;11.80;92.50
82243;DHT22;71844;51.528;4.442;2023-11-21T10:10:14;11.90;91.80
82243;DHT22;71844;51.528;4.442;2023-11-21T10:12:44;11.90;91.70
82243;DHT22;71844;51.528;4.442;2023-11-21T10:15:23;11.90;91.50
82243;DHT22;71844;51.528;4.442;2023-11-21T10:17:52;11.80;91.30
82243;DHT22;71844;51.528;4.442;2023-11-21T10:20:20;11.80;91.20
82243;DHT22;71844;51.528;4.442;2023-11-21T10:22:48;11.70;90.90
82243;DHT22;71844;51.528;4.442;2023-11-21T10:25:15;11.50;91.00
82243;DHT22;71844;51.528;4.442;2023-11-21T10:27:43;11.50;91.00
82243;DHT22;71844;51.528;4.442;2023-11-21T10:30:13;11.40;91.40
82243;DHT22;71844;51.528;4.442;2023-11-21T10:32:39;11.40;91.50
82243;DHT22;71844;51.528;4.442;2023-11-21T10:35:08;11.40;91.60
82243;DHT22;71844;51.528;4.442;2023-11-21T10:37:41;11.30;91.50
82243;DHT22;71844;51.528;4.442;2023-11-21T10:40:10;11.30;91.50
82243;DHT22;71844;51.528;4.442;2023-11-21T10:42:40;11.20;91.60
82243;DHT22;71844;51.528;4.442;2023-11-21T10:45:09;11.30;91.70
82243;DHT22;71844;51.528;4.442;2023-11-21T10:47:41;11.30;91.80
82243;DHT22;71844;51.528;4.442;2023-11-21T10:50:09;11.30;91.90
82243;DHT22;71844;51.528;4.442;2023-11-21T10:52:40;11.30;91.80
82243;DHT22;71844;51.528;4.442;2023-11-21T10:55:19;11.30;91.70
82243;DHT22;71844;51.528;4.442;2023-11-21T10:57:49;11.40;91.70
82243;DHT22;71844;51.528;4.442;2023-11-21T11:00:18;11.40;91.50
82243;DHT22;71844;51.528;4.442;2023-11-21T11:02:52;11.40;91.30
82243;DHT22;71844;51.528;4.442;2023-11-21T11:05:29;11.40;91.00
82243;DHT22;71844;51.528;4.442;2023-11-21T11:07:59;11.40;90.80
82243;DHT22;71844;51.528;4.442;2023-11-21T11:10:34;11.30;90.60
82243;DHT22;71844;51.528;4.442;2023-11-21T11:13:03;11.30;90.80
82243;DHT22;71844;51.528;4.442;2023-11-21T11:15:33;11.30;90.40
82243;DHT22;71844;51.528;4.442;2023-11-21T11:18:08;11.20;90.60
82243;DHT22;71844;51.528;4.442;2023-11-21T11:20:39;11.20;90.60
82243;DHT22;71844;51.528;4.442;2023-11-21T11:26:16;11.20;90.60
82243;DHT22;71844;51.528;4.442;2023-11-21T11:35:07;11.10;90.40
82243;DHT22;71844;51.528;4.442;2023-11-21T11:37:48;11.10;90.40
82243;DHT22;71844;51.528;4.442;2023-11-21T11:40:19;11.20;90.20
82243;DHT22;71844;51.528;4.442;2023-11-21T11:42:58;11.20;90.00
82243;DHT22;71844;51.528;4.442;2023-11-21T11:45:32;11.20;90.20
82243;DHT22;71844;51.528;4.442;2023-11-21T11:48:01;11.20;89.90
82243;DHT22;71844;51.528;4.442;2023-11-21T11:50:28;11.20;90.20
82243;DHT22;71844;51.528;4.442;2023-11-21T11:53:14;11.20;89.70
82243;DHT22;71844;51.528;4.442;2023-11-21T11:55:41;11.20;90.00
82243;DHT22;71844;51.528;4.442;2023-11-21T11:58:08;11.20;90.10
82243;DHT22;71844;51.528;4.442;2023-11-21T12:00:36;11.30;89.80
82243;DHT22;71844;51.528;4.442;2023-11-21T12:03:08;11.20;89.40
82243;DHT22;71844;51.528;4.442;2023-11-21T12:05:36;11.20;89.40
82243;DHT22;71844;51.528;4.442;2023-11-21T12:08:07;11.20;89.60
82243;DHT22;71844;51.528;4.442;2023-11-21T12:10:36;11.20;89.50
82243;DHT22;71844;51.528;4.442;2023-11-21T12:13:06;11.20;89.70
82243;DHT22;71844;51.528;4.442;2023-11-21T12:15:39;11.20;89.70
82243;DHT22;71844;51.528;4.442;2023-11-21T12:18:08;11.20;89.70
82243;DHT22;71844;51.528;4.442;2023-11-21T12:20:35;11.30;89.80
82243;DHT22;71844;51.528;4.442;2023-11-21T12:23:06;11.30;89.60
82243;DHT22;71844;51.528;4.442;2023-11-21T12:25:35;11.30;88.70
82243;DHT22;71844;51.528;4.442;2023-11-21T12:28:03;11.30;88.20
82243;DHT22;71844;51.528;4.442;2023-11-21T12:30:31;11.30;88.50
82243;DHT22;71844;51.528;4.442;2023-11-21T12:32:59;11.20;88.70
82243;DHT22;71844;51.528;4.442;2023-11-21T12:35:30;11.30;88.60
82243;DHT22;71844;51.528;4.442;2023-11-21T12:37:57;11.20;88.20
82243;DHT22;71844;51.528;4.442;2023-11-21T12:40:26;11.20;88.10
82243;DHT22;71844;51.528;4.442;2023-11-21T12:42:57;11.20;88.00
82243;DHT22;71844;51.528;4.442;2023-11-21T12:45:26;11.20;87.90
82243;DHT22;71844;51.528;4.442;2023-11-21T12:50:24;11.10;87.50
82243;DHT22;71844;51.528;4.442;2023-11-21T12:53:02;11.10;87.90
82243;DHT22;71844;51.528;4.442;2023-11-21T12:55:31;11.00;87.60
82243;DHT22;71844;51.528;4.442;2023-11-21T12:58:04;11.00;87.60
82243;DHT22;71844;51.528;4.442;2023-11-21T13:00:40;11.00;87.70
82243;DHT22;71844;51.528;4.442;2023-11-21T13:03:10;10.90;87.70
82243;DHT22;71844;51.528;4.442;2023-11-21T13:05:40;10.90;87.80
82243;DHT22;71844;51.528;4.442;2023-11-21T13:08:14;10.90;87.90
82243;DHT22;71844;51.528;4.442;2023-11-21T13:10:49;11.00;87.70
82243;DHT22;71844;51.528;4.442;2023-11-21T13:13:17;11.00;87.70
82243;DHT22;71844;51.528;4.442;2023-11-21T13:18:17;11.00;87.60
82243;DHT22;71844;51.528;4.442;2023-11-21T13:20:44;11.00;87.70
82243;DHT22;71844;51.528;4.442;2023-11-21T13:23:12;11.00;87.50
82243;DHT22;71844;51.528;4.442;2023-11-21T13:25:39;11.00;87.40
82243;DHT22;71844;51.528;4.442;2023-11-21T13:28:09;10.90;87.40
82243;DHT22;71844;51.528;4.442;2023-11-21T13:30:40;10.90;87.50
82243;DHT22;71844;51.528;4.442;2023-11-21T13:33:07;10.80;87.60
82243;DHT22;71844;51.528;4.442;2023-11-21T13:35:36;10.80;87.70
82243;DHT22;71844;51.528;4.442;2023-11-21T13:38:16;10.80;87.80
82243;DHT22;71844;51.528;4.442;2023-11-21T13:40:56;10.80;87.80
82243;DHT22;71844;51.528;4.442;2023-11-21T13:43:25;10.80;87.90
82243;DHT22;71844;51.528;4.442;2023-11-21T13:45:53;10.80;87.80
82243;DHT22;71844;51.528;4.442;2023-11-21T13:48:29;10.80;87.80
82243;DHT22;71844;51.528;4.442;2023-11-21T13:51:07;10.80;87.90
82243;DHT22;71844;51.528;4.442;2023-11-21T13:53:47;10.90;87.90
82243;DHT22;71844;51.528;4.442;2023-11-21T13:56:17;10.80;87.80
82243;DHT22;71844;51.528;4.442;2023-11-21T13:58:49;10.80;87.90
82243;DHT22;71844;51.528;4.442;2023-11-21T14:01:23;10.80;88.00
82243;DHT22;71844;51.528;4.442;2023-11-21T14:03:58;10.80;88.10
82243;DHT22;71844;51.528;4.442;2023-11-21T14:06:35;10.80;88.10
82243;DHT22;71844;51.528;4.442;2023-11-21T14:09:12;10.70;88.10
82243;DHT22;71844;51.528;4.442;2023-11-21T14:11:44;10.70;88.20
82243;DHT22;71844;51.528;4.442;2023-11-21T14:14:15;10.70;88.20
82243;DHT22;71844;51.528;4.442;2023-11-21T14:16:43;10.70;88.20
82243;DHT22;71844;51.528;4.442;2023-11-21T14:19:11;10.70;88.10
82243;DHT22;71844;51.528;4.442;2023-11-21T14:21:45;10.70;88.20
82243;DHT22;71844;51.528;4.442;2023-11-21T14:24:12;10.70;88.20
82243;DHT22;71844;51.528;4.442;2023-11-21T14:26:43;10.70;88.20
82243;DHT22;71844;51.528;4.442;2023-11-21T14:29:13;10.70;88.20
82243;DHT22;71844;51.528;4.442;2023-11-21T14:31:42;10.70;88.30
82243;DHT22;71844;51.528;4.442;2023-11-21T14:34:10;10.70;88.20
82243;DHT22;71844;51.528;4.442;2023-11-21T14:36:38;10.70;88.00
82243;DHT22;71844;51.528;4.442;2023-11-21T14:39:06;10.60;88.10
82243;DHT22;71844;51.528;4.442;2023-11-21T14:44:11;10.60;88.00
82243;DHT22;71844;51.528;4.442;2023-11-21T14:46:38;10.60;88.00
82243;DHT22;71844;51.528;4.442;2023-11-21T14:49:06;10.60;88.10
82243;DHT22;71844;51.528;4.442;2023-11-21T14:51:52;10.50;88.10
82243;DHT22;71844;51.528;4.442;2023-11-21T14:54:44;10.50;88.10
82243;DHT22;71844;51.528;4.442;2023-11-21T14:57:13;10.50;88.10
82243;DHT22;71844;51.528;4.442;2023-11-21T14:59:49;10.50;88.00
82243;DHT22;71844;51.528;4.442;2023-11-21T15:02:20;10.50;88.00
82243;DHT22;71844;51.528;4.442;2023-11-21T15:05:10;10.50;88.00
82243;DHT22;71844;51.528;4.442;2023-11-21T15:07:44;10.50;87.90
82243;DHT22;71844;51.528;4.442;2023-11-21T15:10:16;10.50;88.00
82243;DHT22;71844;51.528;4.442;2023-11-21T15:12:43;10.50;88.00
82243;DHT22;71844;51.528;4.442;2023-11-21T15:15:11;10.50;87.90
82243;DHT22;71844;51.528;4.442;2023-11-21T15:17:38;10.50;87.90
82243;DHT22;71844;51.528;4.442;2023-11-21T15:20:10;10.50;88.00
82243;DHT22;71844;51.528;4.442;2023-11-21T15:22:39;10.50;88.10
82243;DHT22;71844;51.528;4.442;2023-11-21T15:25:07;10.50;88.00
82243;DHT22;71844;51.528;4.442;2023-11-21T15:27:37;10.50;88.00
82243;DHT22;71844;51.528;4.442;2023-11-21T15:30:05;10.50;87.90
82243;DHT22;71844;51.528;4.442;2023-11-21T15:32:32;10.50;88.00
82243;DHT22;71844;51.528;4.442;2023-11-21T15:34:59;10.50;87.80
82243;DHT22;71844;51.528;4.442;2023-11-21T15:37:26;10.50;87.80
82243;DHT22;71844;51.528;4.442;2023-11-21T15:39:55;10.50;87.80
82243;DHT22;71844;51.528;4.442;2023-11-21T15:42:22;10.50;87.70
82243;DHT22;71844;51.528;4.442;2023-11-21T15:44:48;10.50;87.70
82243;DHT22;71844;51.528;4.442;2023-11-21T15:47:16;10.40;87.70
82243;DHT22;71844;51.528;4.442;2023-11-21T15:49:43;10.40;87.80
82243;DHT22;71844;51.528;4.442;2023-11-21T15:52:15;10.40;87.90
82243;DHT22;71844;51.528;4.442;2023-11-21T15:54:43;10.40;87.90
82243;DHT22;71844;51.528;4.442;2023-11-21T15:57:13;10.30;87.90
82243;DHT22;71844;51.528;4.442;2023-11-21T15:59:40;10.40;88.00
82243;DHT22;71844;51.528;4.442;2023-11-21T16:02:09;10.30;88.10
82243;DHT22;71844;51.528;4.442;2023-11-21T16:04:39;10.30;88.00
82243;DHT22;71844;51.528;4.442;2023-11-21T16:07:08;10.30;88.10
82243;DHT22;71844;51.528;4.442;2023-11-21T16:09:36;10.30;88.10
82243;DHT22;71844;51.528;4.442;2023-11-21T16:12:06;10.30;88.00
82243;DHT22;71844;51.528;4.442;2023-11-21T16:14:35;10.30;88.10
82243;DHT22;71844;51.528;4.442;2023-11-21T16:17:08;10.30;88.20